Lugerville, Wisconsin
Current Conditions -  °F | °C
As of 3:35 AM on Monday 24 Nov 2014 (Local Time) from KPBH Reporting Station
Drizzle Drizzle  
Wind Chill: 29°   Ceiling: 400
Heat Index: 35°   Visibility: 7mi
Dew Point: 35°   Wind: 7mph
Humidity: 100%   Direction: 330°NNW
Pressure: 29.11"   Gusts: NA
Location:  45.7439°N, 90.2959°W
Report Text: KPBH 240935Z AUTO 33006KT 7SM DZ OVC004 02/02 A2911 RMK AO2 P0001 T00150015
Loading
Personal Weather Stations






























Interactive Weather Map New forecast layout! Learn more

10-Day Weather Forecast

Advertisements
Track Severe Weather on mobile